This is the latest recevied weather packets stored in our database for station/object S51UL-6. If no packets are shown the sender has not sent any weather packets the latest 10 day(s).
| Time | Temp. | Humidity | Pressure | Rain* | Wind** | Luminosity | Snow |
|---|---|---|---|---|---|---|---|
| 1777799645 | 22.78° C | 47% | 1020.1 hPa | 0 mm | - | - | - |
| 1777799046 | 22.78° C | 48% | 1020.1 hPa | 0 mm | - | - | - |
| 1777798745 | 22.78° C | 48% | 1020.2 hPa | 0 mm | - | - | - |
| 1777798445 | 22.78° C | 48% | 1020.2 hPa | 0 mm | - | - | - |
| 1777798147 | 22.22° C | 50% | 1020.2 hPa | 0 mm | - | - | - |
| 1777797546 | 22.22° C | 52% | 1020.2 hPa | 0 mm | - | - | - |
| 1777797246 | 21.67° C | 52% | 1020.3 hPa | 0 mm | - | - | - |
| 1777796946 | 21.67° C | 53% | 1020.3 hPa | 0 mm | - | - | - |
| 1777796046 | 20.56° C | 55% | 1020.3 hPa | 0 mm | - | - | - |
| 1777795746 | 20° C | 53% | 1020.5 hPa | 0 mm | - | - | - |
| 1777795446 | 20° C | 55% | 1020.2 hPa | 0 mm | - | - | - |
| 1777794546 | 19.44° C | 61% | 1020.4 hPa | 0 mm | - | - | - |
| 1777794247 | 18.89° C | 65% | 1020.5 hPa | 0 mm | - | - | - |
| 1777793048 | 15° C | 71% | 1020.4 hPa | 0 mm | - | - | - |
| 1777792746 | 14.44° C | 72% | 1020.5 hPa | 0 mm | - | - | - |
| 1777792447 | 13.89° C | 73% | 1020.5 hPa | 0 mm | - | - | - |
| 1777792147 | 13.33° C | 74% | 1020.5 hPa | 0 mm | - | - | - |
| 1777790049 | 10.56° C | 81% | 1020.2 hPa | 0 mm | - | - | - |
| 1777789747 | 10.56° C | 81% | 1020.2 hPa | 0 mm | - | - | - |
| 1777789447 | 10° C | 82% | 1020.2 hPa | 0 mm | - | - | - |
| 1777788847 | 9.44° C | 84% | 1020.3 hPa | 0 mm | - | - | - |
| 1777788548 | 8.89° C | 84% | 1020.2 hPa | 0 mm | - | - | - |
| 1777788247 | 8.33° C | 85% | 1020.2 hPa | 0 mm | - | - | - |
| 1777787347 | 7.22° C | 85% | 1020 hPa | 0 mm | - | - | - |
| 1777787048 | 7.22° C | 86% | 1020.1 hPa | 0 mm | - | - | - |
* Rain latest hour (hover to see other rain measurements)
** Current wind speed in m/s (hover to see current wind gust speed)